createdAt,value
2022-11-01T00:00:18.360Z,73.90
2022-11-01T00:02:46.572Z,71.75
2022-11-01T00:05:14.891Z,72.19
2022-11-01T00:07:42.367Z,72.91
2022-11-01T00:10:10.796Z,72.99
2022-11-01T00:12:38.929Z,71.87
2022-11-01T00:15:10.384Z,72.54
2022-11-01T00:17:38.573Z,73.06
2022-11-01T00:20:06.492Z,73.38
2022-11-01T00:22:35.751Z,72.58
2022-11-01T00:25:04.235Z,72.37
2022-11-01T00:27:31.862Z,72.27
2022-11-01T00:29:59.670Z,71.72
2022-11-01T00:32:27.524Z,71.45
2022-11-01T00:34:55.358Z,72.61
2022-11-01T00:37:24.428Z,73.20
2022-11-01T00:39:52.508Z,73.10
2022-11-01T00:42:20.087Z,71.75
2022-11-01T00:44:47.801Z,71.82
2022-11-01T00:47:16.022Z,71.52
2022-11-01T00:49:43.890Z,73.73
2022-11-01T00:52:11.846Z,74.59
2022-11-01T00:54:39.871Z,74.80
2022-11-01T00:57:08.537Z,73.80
2022-11-01T00:59:40.722Z,74.25
2022-11-01T01:02:09.704Z,74.20
2022-11-01T01:04:42.343Z,74.46
2022-11-01T01:07:11.532Z,74.16
2022-11-01T01:09:39.259Z,74.40
2022-11-01T01:12:07.001Z,74.35
2022-11-01T01:14:35.422Z,74.04
2022-11-01T01:17:03.061Z,73.98
2022-11-01T01:19:31.613Z,75.11
2022-11-01T01:22:01.160Z,74.61
2022-11-01T01:24:28.916Z,75.25
2022-11-01T01:26:56.754Z,74.80
2022-11-01T01:29:24.796Z,74.90
2022-11-01T01:31:52.879Z,77.16
2022-11-01T01:34:22.395Z,76.52
2022-11-01T01:36:51.892Z,75.83
2022-11-01T01:39:20.271Z,76.04
2022-11-01T01:41:58.206Z,74.71
2022-11-01T01:44:50.265Z,74.88
2022-11-01T01:47:33.111Z,75.06
2022-11-01T01:50:14.671Z,74.20
2022-11-01T01:52:56.403Z,74.54
2022-11-01T01:55:30.639Z,73.70
2022-11-01T01:57:58.554Z,73.69
2022-11-01T02:00:27.248Z,72.70
2022-11-01T02:02:55.405Z,73.74
2022-11-01T02:05:37.412Z,73.07
2022-11-01T02:08:05.654Z,73.91
2022-11-01T02:10:35.047Z,73.78
2022-11-01T02:13:02.909Z,74.40
2022-11-01T02:15:42.058Z,73.79
2022-11-01T02:18:17.172Z,74.68
2022-11-01T02:21:28.281Z,74.51
2022-11-01T02:24:13.858Z,74.19
2022-11-01T02:27:03.310Z,74.31
2022-11-01T02:30:08.443Z,74.25
2022-11-01T02:32:55.567Z,73.64
2022-11-01T02:35:33.331Z,74.55
2022-11-01T02:38:35.303Z,72.72
2022-11-01T02:41:13.420Z,73.64
2022-11-01T02:43:53.855Z,75.51
2022-11-01T02:46:41.404Z,74.00
2022-11-01T02:49:11.826Z,73.72
2022-11-01T02:51:40.068Z,73.89
2022-11-01T02:54:10.950Z,75.41
2022-11-01T02:56:39.540Z,73.58
2022-11-01T02:59:16.300Z,74.55
2022-11-01T03:01:51.156Z,74.75
2022-11-01T03:04:19.366Z,73.94
2022-11-01T03:06:53.668Z,75.19
2022-11-01T03:09:21.654Z,74.64
2022-11-01T03:11:55.173Z,73.97
2022-11-01T03:14:34.405Z,74.41
2022-11-01T03:17:09.594Z,74.94
2022-11-01T03:20:06.173Z,75.10
2022-11-01T03:22:47.840Z,74.79
2022-11-01T03:25:34.581Z,76.07
2022-11-01T03:28:06.528Z,75.21
2022-11-01T03:30:35.707Z,74.25
2022-11-01T03:33:04.355Z,74.48
2022-11-01T03:35:36.128Z,75.50
2022-11-01T03:38:13.688Z,76.75
2022-11-01T03:40:45.083Z,75.85
2022-11-01T03:43:15.427Z,74.65
2022-11-01T03:45:43.567Z,74.64
2022-11-01T03:48:10.934Z,74.81
2022-11-01T03:50:40.247Z,73.99
2022-11-01T03:53:08.079Z,75.59
2022-11-01T03:55:35.581Z,73.84
2022-11-01T03:58:03.787Z,73.39
2022-11-01T04:00:38.104Z,72.87
2022-11-01T04:03:06.800Z,72.15
2022-11-01T04:05:35.795Z,72.10
2022-11-01T04:08:03.898Z,74.04
2022-11-01T04:10:32.331Z,75.45
2022-11-01T04:13:00.186Z,75.66
2022-11-01T04:18:42.514Z,75.69
2022-11-01T04:21:15.197Z,74.27
2022-11-01T04:23:44.648Z,75.05
2022-11-01T04:26:17.084Z,75.88
2022-11-01T04:28:57.121Z,74.03
2022-11-01T04:31:36.933Z,75.48
2022-11-01T04:34:05.591Z,74.91
2022-11-01T04:36:33.132Z,74.73
2022-11-01T04:39:02.195Z,74.11
2022-11-01T04:41:30.426Z,74.60
2022-11-01T04:43:59.111Z,74.83
2022-11-01T04:46:31.887Z,74.68
2022-11-01T04:48:59.625Z,73.86
2022-11-01T04:51:27.332Z,74.11
2022-11-01T04:53:55.615Z,75.10
2022-11-01T04:56:23.563Z,75.68
2022-11-01T04:58:51.761Z,74.72
2022-11-01T05:01:20.371Z,74.92
2022-11-01T05:03:49.719Z,74.86
2022-11-01T05:06:17.674Z,75.24
2022-11-01T05:08:45.245Z,74.52
2022-11-01T05:11:15.117Z,75.87
2022-11-01T05:13:45.209Z,74.43
2022-11-01T05:16:19.498Z,73.49
2022-11-01T05:18:49.078Z,74.94
2022-11-01T05:21:20.222Z,75.01
2022-11-01T05:23:49.112Z,74.87
2022-11-01T05:26:17.624Z,74.76
2022-11-01T05:28:45.192Z,74.66
2022-11-01T05:31:13.451Z,75.67
2022-11-01T05:33:41.248Z,74.22
2022-11-01T05:36:09.365Z,75.14
2022-11-01T05:38:37.454Z,74.64
2022-11-01T05:41:05.754Z,74.03
2022-11-01T05:43:33.612Z,73.10
2022-11-01T05:46:07.229Z,72.20
2022-11-01T05:48:35.903Z,74.82
2022-11-01T05:51:05.929Z,73.32
2022-11-01T05:53:40.325Z,73.71
2022-11-01T05:56:08.970Z,73.05
2022-11-01T05:58:37.860Z,73.40
2022-11-01T06:01:06.757Z,75.00
2022-11-01T06:03:37.009Z,74.89
2022-11-01T06:06:07.304Z,76.04
2022-11-01T06:08:42.390Z,75.44
2022-11-01T06:11:13.987Z,74.39
2022-11-01T06:13:43.984Z,73.83
2022-11-01T06:16:12.768Z,76.46
2022-11-01T06:18:41.724Z,76.20
2022-11-01T06:21:09.705Z,76.03
2022-11-01T06:23:38.829Z,76.20
2022-11-01T06:26:13.252Z,76.49
2022-11-01T06:28:42.574Z,74.33
2022-11-01T06:31:13.249Z,74.54
2022-11-01T06:33:51.312Z,76.16
2022-11-01T06:36:19.460Z,75.10
2022-11-01T06:38:50.098Z,73.90
2022-11-01T06:41:18.541Z,74.15
2022-11-01T06:43:49.292Z,73.18
2022-11-01T06:46:25.461Z,73.64
2022-11-01T06:48:55.335Z,73.84
2022-11-01T06:51:25.497Z,73.54
2022-11-01T06:53:55.585Z,73.45
2022-11-01T06:56:23.435Z,73.54
2022-11-01T06:58:57.872Z,73.28
2022-11-01T07:04:06.619Z,74.85
2022-11-01T07:06:34.892Z,73.69
2022-11-01T07:11:40.136Z,73.79
2022-11-01T07:14:14.801Z,72.72
2022-11-01T07:16:46.862Z,72.34
2022-11-01T07:19:17.845Z,72.73
2022-11-01T07:24:34.333Z,74.75
2022-11-01T07:27:06.474Z,75.30
2022-11-01T07:29:38.231Z,74.22
2022-11-01T07:32:08.387Z,73.32
2022-11-01T07:34:47.347Z,74.39
2022-11-01T07:39:58.246Z,73.88
2022-11-01T07:42:28.483Z,74.38
2022-11-01T07:44:59.278Z,73.87
2022-11-01T07:47:33.445Z,72.65
2022-11-01T07:50:09.212Z,73.20
2022-11-01T07:52:58.421Z,73.98
2022-11-01T07:55:34.093Z,74.35
2022-11-01T07:58:03.045Z,74.37
2022-11-01T08:00:32.447Z,73.75
2022-11-01T08:03:12.844Z,75.22
2022-11-01T08:05:41.556Z,74.54
2022-11-01T08:11:03.350Z,74.89
2022-11-01T08:13:39.294Z,75.01
2022-11-01T08:16:07.886Z,73.04
2022-11-01T08:18:38.446Z,75.34
2022-11-01T08:21:06.660Z,76.31
2022-11-01T08:23:34.704Z,75.25
2022-11-01T08:26:09.307Z,74.95
2022-11-01T08:28:39.075Z,74.34
2022-11-01T08:31:14.669Z,74.90
2022-11-01T08:33:47.535Z,74.77
2022-11-01T08:36:17.723Z,74.96
2022-11-01T08:39:00.618Z,73.62
2022-11-01T08:44:24.358Z,75.10
2022-11-01T08:46:57.200Z,73.33
2022-11-01T08:49:35.408Z,73.35
2022-11-01T08:52:12.556Z,74.08
2022-11-01T08:55:01.875Z,74.21
2022-11-01T09:00:29.555Z,73.21
2022-11-01T09:03:00.492Z,74.55
2022-11-01T09:05:33.325Z,74.60
2022-11-01T09:08:09.693Z,73.79
2022-11-01T09:10:52.479Z,74.13
2022-11-01T09:13:25.516Z,73.82
2022-11-01T09:16:07.339Z,73.38
2022-11-01T09:18:44.350Z,72.01
2022-11-01T09:21:14.770Z,71.61
2022-11-01T09:23:44.662Z,71.75
2022-11-01T09:26:30.303Z,72.74
2022-11-01T09:29:02.502Z,72.82
2022-11-01T09:31:33.919Z,72.59
2022-11-01T09:34:13.974Z,71.21
2022-11-01T09:36:43.396Z,71.82
2022-11-01T09:39:16.487Z,71.76
2022-11-01T09:41:52.372Z,72.03
2022-11-01T09:44:32.495Z,71.86
2022-11-01T09:47:09.405Z,72.17
2022-11-01T09:52:55.845Z,71.27
2022-11-01T09:55:55.764Z,72.31
2022-11-01T09:58:55.301Z,73.00
2022-11-01T10:01:58.291Z,72.79
2022-11-01T10:04:34.868Z,72.27
2022-11-01T10:07:35.331Z,72.09
2022-11-01T10:10:22.250Z,70.76
2022-11-01T10:13:14.307Z,71.19
2022-11-01T10:16:05.315Z,70.62
2022-11-01T10:18:45.392Z,71.37
2022-11-01T10:21:25.867Z,71.15
2022-11-01T10:24:03.776Z,71.01
2022-11-01T10:26:38.653Z,70.92
2022-11-01T10:29:17.076Z,71.76
2022-11-01T10:31:48.320Z,70.99
2022-11-01T10:34:36.205Z,69.41
2022-11-01T10:37:30.282Z,70.23
2022-11-01T10:42:44.853Z,72.46
2022-11-01T10:45:25.365Z,71.97
2022-11-01T10:48:05.580Z,71.75
2022-11-01T10:50:34.799Z,70.57
2022-11-01T10:53:13.456Z,70.76
2022-11-01T10:56:03.270Z,72.09
2022-11-01T10:58:51.517Z,71.43
2022-11-01T11:01:26.994Z,71.21
2022-11-01T11:04:08.458Z,69.93
2022-11-01T11:07:17.541Z,72.95
2022-11-01T11:12:32.098Z,70.25
2022-11-01T11:17:52.349Z,71.30
2022-11-01T11:20:37.899Z,71.26
2022-11-01T11:25:50.880Z,70.39
2022-11-01T11:28:32.385Z,69.39
2022-11-01T11:31:30.566Z,70.93
2022-11-01T11:34:30.314Z,69.62
2022-11-01T11:37:06.340Z,70.91
2022-11-01T11:40:03.553Z,70.34
2022-11-01T11:42:33.433Z,70.42
2022-11-01T11:45:31.284Z,70.15
2022-11-01T11:48:22.305Z,69.82
2022-11-01T11:51:05.287Z,69.30
2022-11-01T11:53:40.304Z,67.42
2022-11-01T11:56:09.694Z,68.79
2022-11-01T11:58:49.320Z,67.72
2022-11-01T12:01:24.369Z,67.46
2022-11-01T12:03:58.286Z,68.36
2022-11-01T12:06:37.260Z,69.17
2022-11-01T12:09:35.756Z,67.51
2022-11-01T12:12:24.347Z,67.33
2022-11-01T12:14:56.287Z,68.67
2022-11-01T12:17:52.373Z,68.45
2022-11-01T12:20:36.680Z,67.60
2022-11-01T12:23:21.524Z,66.96
2022-11-01T12:25:51.642Z,66.47
2022-11-01T12:28:45.296Z,66.83
2022-11-01T12:31:22.464Z,67.08
2022-11-01T12:37:05.542Z,66.66
2022-11-01T12:39:44.076Z,67.62
2022-11-01T12:42:30.192Z,67.21
2022-11-01T12:45:07.480Z,67.15
2022-11-01T12:47:44.533Z,67.16
2022-11-01T12:50:25.001Z,66.33
2022-11-01T12:55:49.365Z,64.46
2022-11-01T12:58:25.476Z,64.38
2022-11-01T13:01:16.619Z,64.78
2022-11-01T13:04:00.285Z,65.06
2022-11-01T13:06:44.558Z,64.50
2022-11-01T13:09:46.331Z,64.17
2022-11-01T13:12:34.633Z,65.44
2022-11-01T13:15:43.475Z,65.94
2022-11-01T13:18:27.482Z,65.12
2022-11-01T13:21:12.305Z,64.08
2022-11-01T13:26:30.758Z,64.52
2022-11-01T13:29:40.061Z,65.04
2022-11-01T13:32:32.904Z,64.90
2022-11-01T13:35:23.555Z,64.77
2022-11-01T13:37:58.542Z,65.21
2022-11-01T13:40:33.294Z,64.45
2022-11-01T13:43:18.378Z,64.83
2022-11-01T13:46:16.329Z,64.87
2022-11-01T13:49:04.736Z,64.60
2022-11-01T13:52:02.421Z,64.02
2022-11-01T13:54:48.196Z,63.98
2022-11-01T13:57:17.916Z,63.47
2022-11-01T13:59:57.293Z,63.76
2022-11-01T14:02:35.387Z,63.84
2022-11-01T14:07:50.944Z,63.92
2022-11-01T14:10:20.262Z,63.60
2022-11-01T14:13:10.690Z,63.53
2022-11-01T14:16:00.571Z,64.24
2022-11-01T14:18:30.024Z,63.87
2022-11-01T14:21:00.509Z,64.61
2022-11-01T14:23:30.054Z,64.25
2022-11-01T14:27:08.047Z,63.71
2022-11-01T14:29:37.957Z,63.92
2022-11-01T14:32:11.672Z,63.94
2022-11-01T14:34:47.259Z,63.68
2022-11-01T14:37:21.312Z,63.74
2022-11-01T14:40:01.818Z,63.88
2022-11-01T14:42:40.136Z,63.75
2022-11-01T14:45:24.565Z,63.75
2022-11-01T14:47:57.675Z,64.04
2022-11-01T14:50:43.169Z,63.81
2022-11-01T14:53:22.640Z,63.11
2022-11-01T14:55:53.518Z,62.70
2022-11-01T14:58:24.283Z,63.51
2022-11-01T15:00:56.648Z,63.77
2022-11-01T15:03:29.376Z,63.52
2022-11-01T15:06:08.245Z,63.63
2022-11-01T15:08:48.186Z,63.16
2022-11-01T15:11:20.641Z,63.27
2022-11-01T15:13:49.329Z,63.96
2022-11-01T15:16:23.190Z,63.98
2022-11-01T15:19:01.478Z,63.67
2022-11-01T15:21:46.705Z,64.23
2022-11-01T15:24:30.344Z,63.61
2022-11-01T15:27:18.288Z,63.97
2022-11-01T15:29:59.313Z,63.44
2022-11-01T15:35:24.198Z,63.82
2022-11-01T15:37:55.403Z,63.04
2022-11-01T15:40:37.061Z,63.65
2022-11-01T15:43:08.399Z,63.69
2022-11-01T15:48:22.356Z,63.71
2022-11-01T15:51:06.228Z,63.88
2022-11-01T15:53:37.193Z,64.37
2022-11-01T15:56:12.266Z,64.16
2022-11-01T15:58:44.835Z,64.55
2022-11-01T16:01:23.597Z,64.54
2022-11-01T16:07:02.302Z,64.53
2022-11-01T16:09:53.284Z,64.46
2022-11-01T16:12:35.546Z,64.48
2022-11-01T16:15:23.422Z,64.70
2022-11-01T16:18:00.512Z,64.16
2022-11-01T16:20:41.330Z,64.97
2022-11-01T16:23:32.292Z,64.34
2022-11-01T16:26:13.426Z,64.42
2022-11-01T16:28:46.542Z,64.48
2022-11-01T16:33:59.931Z,64.85
2022-11-01T16:36:45.429Z,64.78
2022-11-01T16:39:32.342Z,64.63
2022-11-01T16:42:36.246Z,64.52
2022-11-01T16:45:05.950Z,64.37
2022-11-01T16:47:44.259Z,64.67
2022-11-01T16:50:26.207Z,64.64
2022-11-01T16:53:10.157Z,64.31
2022-11-01T16:55:45.354Z,64.26
2022-11-01T16:58:23.928Z,64.30
2022-11-01T17:01:00.599Z,64.22
2022-11-01T17:03:35.374Z,64.32
2022-11-01T17:06:09.366Z,64.64
2022-11-01T17:08:41.440Z,64.74
2022-11-01T17:11:15.395Z,64.87
2022-11-01T17:13:49.152Z,64.84
2022-11-01T17:16:28.702Z,65.07
2022-11-01T17:19:09.371Z,65.17
2022-11-01T17:21:48.322Z,65.31
2022-11-01T17:24:25.044Z,65.33
2022-11-01T17:27:03.305Z,65.09
2022-11-01T17:32:20.262Z,64.65
2022-11-01T17:34:53.793Z,64.76
2022-11-01T17:40:20.789Z,65.28
2022-11-01T17:42:53.543Z,65.29
2022-11-01T17:45:23.437Z,65.11
2022-11-01T17:51:00.969Z,64.54
2022-11-01T17:53:41.634Z,65.18
2022-11-01T17:56:13.373Z,64.95
2022-11-01T17:58:41.841Z,65.43
2022-11-01T18:03:45.442Z,65.69
2022-11-01T18:06:41.296Z,65.63
2022-11-01T18:15:12.308Z,64.38
2022-11-01T18:17:53.906Z,64.75
2022-11-01T18:20:34.290Z,65.08
2022-11-01T18:23:15.241Z,65.82
2022-11-01T18:25:48.606Z,65.06
2022-11-01T18:28:27.282Z,64.66
2022-11-01T18:31:27.330Z,65.14
2022-11-01T18:34:04.546Z,65.23
2022-11-01T18:36:53.231Z,65.33
2022-11-01T18:42:28.304Z,65.45
2022-11-01T18:45:01.756Z,66.14
2022-11-01T18:47:41.209Z,65.81
2022-11-01T18:50:36.047Z,66.40
2022-11-01T18:53:17.337Z,66.33
2022-11-01T18:55:50.562Z,65.79
2022-11-01T18:58:31.280Z,66.33
2022-11-01T19:01:19.470Z,66.17
2022-11-01T19:03:58.040Z,65.13
2022-11-01T19:06:27.646Z,65.38
2022-11-01T19:09:03.335Z,65.36
2022-11-01T19:11:38.593Z,66.07
2022-11-01T19:14:24.328Z,65.73
2022-11-01T19:16:54.511Z,66.33
2022-11-01T19:19:23.125Z,65.47
2022-11-01T19:21:53.341Z,65.26
2022-11-01T19:24:36.331Z,65.54
2022-11-01T19:27:22.294Z,66.22
2022-11-01T19:35:19.408Z,65.16
2022-11-01T19:37:58.492Z,65.53
2022-11-01T19:40:32.027Z,66.51
2022-11-01T19:43:17.399Z,66.30
2022-11-01T19:46:05.271Z,65.97
2022-11-01T19:48:42.698Z,64.74
2022-11-01T19:54:00.040Z,66.95
2022-11-01T19:56:30.708Z,66.36
2022-11-01T19:59:11.352Z,66.12
2022-11-01T20:01:44.487Z,65.60
2022-11-01T20:04:26.042Z,65.15
2022-11-01T20:07:20.752Z,64.89
2022-11-01T20:09:55.975Z,66.09
2022-11-01T20:13:10.406Z,66.03
2022-11-01T20:15:41.577Z,66.01
2022-11-01T20:18:12.286Z,67.47
2022-11-01T20:20:46.749Z,66.25
2022-11-01T20:23:26.661Z,66.04
2022-11-01T20:26:02.343Z,66.36
2022-11-01T20:28:38.205Z,67.10
2022-11-01T20:31:06.688Z,64.78
2022-11-01T20:33:34.737Z,66.16
2022-11-01T20:36:10.828Z,64.99
2022-11-01T20:38:40.296Z,65.77
2022-11-01T20:41:16.348Z,64.99
2022-11-01T20:43:45.913Z,65.17
2022-11-01T20:46:14.943Z,66.26
2022-11-01T20:48:45.569Z,66.46
2022-11-01T20:51:15.078Z,65.89
2022-11-01T20:53:49.393Z,64.79
2022-11-01T20:56:23.337Z,63.78
2022-11-01T21:04:19.504Z,66.50
2022-11-01T21:06:49.470Z,66.03
2022-11-01T21:09:32.227Z,65.69
2022-11-01T21:12:13.344Z,65.09
2022-11-01T21:14:42.710Z,65.24
2022-11-01T21:17:18.388Z,64.99
2022-11-01T21:19:56.342Z,66.02
2022-11-01T21:22:25.016Z,65.99
2022-11-01T21:24:54.270Z,65.01
2022-11-01T21:27:26.940Z,64.12
2022-11-01T21:30:16.322Z,64.82
2022-11-01T21:32:45.557Z,63.59
2022-11-01T21:35:21.126Z,63.78
2022-11-01T21:37:54.831Z,65.42
2022-11-01T21:40:29.240Z,66.30
2022-11-01T21:43:01.321Z,65.09
2022-11-01T21:45:35.112Z,64.77
2022-11-01T21:48:26.833Z,65.11
2022-11-01T21:50:57.714Z,65.40
2022-11-01T21:53:33.240Z,66.19
2022-11-01T21:56:04.713Z,64.69
2022-11-01T21:58:36.451Z,64.93
2022-11-01T22:01:06.273Z,65.87
2022-11-01T22:03:36.461Z,67.33
2022-11-01T22:06:10.625Z,65.22
2022-11-01T22:08:38.947Z,64.98
2022-11-01T22:11:06.853Z,64.60
2022-11-01T22:13:34.829Z,63.78
2022-11-01T22:16:04.346Z,64.33
2022-11-01T22:18:34.300Z,65.47
2022-11-01T22:21:03.520Z,64.69
2022-11-01T22:23:31.590Z,65.42
2022-11-01T22:26:02.350Z,64.14
2022-11-01T22:28:33.467Z,65.24
2022-11-01T22:31:02.982Z,65.40
2022-11-01T22:33:32.006Z,64.60
2022-11-01T22:35:59.976Z,64.93
2022-11-01T22:38:37.862Z,65.27
2022-11-01T22:41:12.852Z,65.28
2022-11-01T22:43:46.482Z,64.93
2022-11-01T22:46:21.985Z,63.99
2022-11-01T22:48:49.737Z,64.11
2022-11-01T22:51:38.398Z,64.17
2022-11-01T22:54:42.246Z,64.43
2022-11-01T22:57:15.661Z,64.89
2022-11-01T22:59:46.664Z,63.95
2022-11-01T23:02:31.632Z,63.79
2022-11-01T23:05:08.724Z,65.56
2022-11-01T23:07:43.039Z,63.96
2022-11-01T23:10:38.250Z,64.00
2022-11-01T23:13:35.634Z,65.32
2022-11-01T23:16:37.438Z,65.47
2022-11-01T23:19:09.379Z,65.22
2022-11-01T23:21:37.161Z,64.81
2022-11-01T23:24:07.916Z,63.89
2022-11-01T23:26:37.040Z,64.86
2022-11-01T23:29:06.182Z,64.39
2022-11-01T23:31:37.753Z,65.37
2022-11-01T23:34:06.102Z,65.42
2022-11-01T23:36:37.660Z,64.76
2022-11-01T23:39:12.467Z,64.77
2022-11-01T23:41:51.091Z,64.80
2022-11-01T23:44:36.026Z,64.82
2022-11-01T23:47:09.826Z,64.79
2022-11-01T23:49:37.924Z,64.37
2022-11-01T23:52:28.209Z,64.39
2022-11-01T23:54:56.492Z,64.83
2022-11-01T23:57:27.826Z,64.63
2022-11-01T23:59:56.257Z,64.26
